Time;durP1;ratioP1;P1;durP2;ratioP2;P2;SDS_P1;SDS_P2;PMS_P1;PMS_P2;Temp;Humidity;BMP_temperature;BMP_pressure;BME280_temperature;BME280_humidity;BME280_pressure;Samples;Min_cycle;Max_cycle;Signal;HPM_P1;HPM_P2
2023/01/10 00:01:17;;;;;;;1.02;0.50;;;;;;;4.57;100.00;98429.03;4991924;28;21889;-75
2023/01/10 00:03:42;;;;;;;0.88;0.50;;;;;;;4.57;100.00;98447.78;4998944;28;20141;-75
2023/01/10 00:06:08;;;;;;;3.10;0.80;;;;;;;4.58;100.00;98437.88;5007540;28;20399;-75
2023/01/10 00:08:33;;;;;;;3.00;0.55;;;;;;;4.64;100.00;98436.34;4993193;28;20669;-77
2023/01/10 00:13:21;;;;;;;0.63;0.32;;;;;;;4.54;100.00;98453.50;5009965;28;20033;-76
2023/01/10 00:13:44;;;;;;;0.52;0.50;;;;;;;4.41;100.00;98449.69;5009070;28;20049;-77
2023/01/10 00:16:09;;;;;;;1.23;0.50;;;;;;;4.59;100.00;98467.19;4994341;28;20479;-77
2023/01/10 00:18:34;;;;;;;1.17;0.50;;;;;;;4.59;100.00;98477.09;4995265;28;20014;-77
2023/01/10 00:21:00;;;;;;;1.63;0.52;;;;;;;4.49;100.00;98463.88;5010304;28;20041;-77
2023/01/10 00:23:25;;;;;;;1.10;0.60;;;;;;;4.61;100.00;98483.09;4994302;28;20026;-77
2023/01/10 00:25:51;;;;;;;0.90;0.57;;;;;;;4.58;100.00;98486.13;5010415;28;20383;-76
2023/01/10 00:28:18;;;;;;;1.20;0.52;;;;;;;4.45;100.00;98472.44;5012803;28;20522;-76
2023/01/10 00:30:53;;;;;;;0.88;0.55;;;;;;;4.63;100.00;98496.31;5012397;28;20760;-76
2023/01/10 00:33:19;;;;;;;2.05;0.73;;;;;;;4.59;100.00;98515.44;5012286;28;20699;-77
2023/01/10 00:35:44;;;;;;;0.98;0.60;;;;;;;4.50;100.00;98496.88;4990205;28;20026;-76
2023/01/10 00:38:10;;;;;;;1.10;0.70;;;;;;;4.55;100.00;98494.50;5006355;28;20037;-77
2023/01/10 00:40:35;;;;;;;2.13;0.77;;;;;;;4.66;100.00;98507.53;5016749;28;20042;-76
2023/01/10 00:45:45;;;;;;;1.95;0.77;;;;;;;4.58;100.00;98519.13;5020668;28;20033;-77
2023/01/10 00:48:11;;;;;;;2.10;0.55;;;;;;;4.54;100.00;98512.44;4994895;28;20502;-77
2023/01/10 00:50:37;;;;;;;2.88;0.73;;;;;;;4.52;100.00;98522.47;4993635;28;20040;-77
2023/01/10 00:53:03;;;;;;;3.80;0.80;;;;;;;4.33;100.00;98501.44;5009804;28;20026;-76
2023/01/10 00:55:28;;;;;;;0.75;0.60;;;;;;;4.50;100.00;98520.97;4990908;28;20120;-76
2023/01/10 00:57:53;;;;;;;3.35;0.98;;;;;;;4.43;100.00;98504.78;4990127;28;20506;-77
2023/01/10 01:00:19;;;;;;;2.58;0.80;;;;;;;4.55;100.00;98515.94;4987808;28;20662;-77
2023/01/10 01:02:44;;;;;;;1.25;0.70;;;;;;;4.60;100.00;98538.53;5010357;28;20021;-77
2023/01/10 01:05:09;;;;;;;2.40;1.20;;;;;;;4.65;100.00;98551.41;5009122;28;20032;-77
2023/01/10 01:07:35;;;;;;;1.42;0.77;;;;;;;4.37;100.00;98526.84;5009674;28;20036;-75
2023/01/10 01:12:44;;;;;;;3.17;0.90;;;;;;;4.54;100.00;98575.91;5009575;28;20121;-76
2023/01/10 01:15:11;;;;;;;1.70;0.93;;;;;;;4.39;100.00;98557.00;5011805;28;21081;-76
2023/01/10 01:17:36;;;;;;;1.73;1.00;;;;;;;4.39;100.00;98570.38;5009031;28;20114;-75
2023/01/10 01:20:02;;;;;;;2.72;0.95;;;;;;;4.20;100.00;98562.72;4989062;28;20124;-76
2023/01/10 01:22:27;;;;;;;3.15;1.15;;;;;;;4.32;100.00;98588.13;4998825;28;20026;-76
2023/01/10 01:24:53;;;;;;;4.30;1.00;;;;;;;4.28;100.00;98593.00;4991436;28;20948;-76
2023/01/10 01:27:19;;;;;;;2.88;1.25;;;;;;;4.34;100.00;98604.88;5012578;28;20036;-76
2023/01/10 01:29:45;;;;;;;4.10;1.17;;;;;;;4.29;100.00;98593.81;4990891;28;20026;-74
2023/01/10 01:32:10;;;;;;;1.63;1.30;;;;;;;4.52;100.00;98623.44;4985742;28;20079;-76
2023/01/10 01:34:36;;;;;;;2.55;1.17;;;;;;;4.39;100.00;98600.69;4991501;28;20024;-75
2023/01/10 01:37:01;;;;;;;1.83;1.15;;;;;;;4.35;100.00;98595.84;5015825;28;20045;-76
2023/01/10 01:39:26;;;;;;;2.58;1.40;;;;;;;4.58;100.00;98637.00;5012614;28;20493;-76
2023/01/10 01:41:59;;;;;;;2.10;1.30;;;;;;;4.67;100.00;98637.00;5002759;28;20018;-76
2023/01/10 01:44:30;;;;;;;2.90;1.33;;;;;;;4.71;100.00;98649.03;5004917;28;20455;-76
2023/01/10 01:47:14;;;;;;;2.05;1.20;;;;;;;4.70;100.00;98653.56;5010138;28;20045;-76
2023/01/10 01:49:43;;;;;;;5.00;1.80;;;;;;;4.69;100.00;98667.97;4986153;28;20029;-76
2023/01/10 01:52:21;;;;;;;3.45;1.60;;;;;;;4.56;100.00;98648.91;5006424;28;20289;-76
2023/01/10 01:54:47;;;;;;;2.50;1.23;;;;;;;4.63;100.00;98674.00;5005405;28;20037;-77
2023/01/10 01:57:20;;;;;;;1.85;1.35;;;;;;;4.70;100.00;98679.53;4992068;28;20419;-77
2023/01/10 01:59:49;;;;;;;3.53;1.30;;;;;;;4.55;100.00;98672.16;5019850;28;20057;-75
2023/01/10 02:02:25;;;;;;;2.28;1.27;;;;;;;4.62;100.00;98685.72;5012915;28;20487;-76
2023/01/10 02:05:09;;;;;;;2.28;1.08;;;;;;;4.68;100.00;98689.56;4989497;28;20038;-74
2023/01/10 02:07:37;;;;;;;2.70;1.10;;;;;;;4.76;100.00;98705.66;4989621;28;20491;-74
2023/01/10 02:10:22;;;;;;;2.10;0.80;;;;;;;4.75;100.00;98707.50;4993726;28;20021;-76
2023/01/10 02:12:50;;;;;;;1.23;0.85;;;;;;;4.69;100.00;98691.25;5009437;28;20022;-76
2023/01/10 02:15:16;;;;;;;1.30;1.00;;;;;;;4.61;100.00;98694.75;5008417;28;20031;-76
2023/01/10 02:17:42;;;;;;;2.33;0.60;;;;;;;4.66;100.00;98695.09;4993119;28;20333;-75
2023/01/10 02:20:11;;;;;;;1.30;0.60;;;;;;;4.59;100.00;98680.72;4988434;28;20448;-75
2023/01/10 02:23:03;;;;;;;1.15;0.70;;;;;;;4.80;100.00;98725.75;4984391;28;20392;-76
2023/01/10 02:26:08;;;;;;;0.75;0.47;;;;;;;4.70;100.00;98714.38;5011439;28;20061;-76
2023/01/10 02:28:39;;;;;;;0.38;0.32;;;;;;;4.77;100.00;98732.28;5005115;28;20033;-76
2023/01/10 02:31:34;;;;;;;1.23;0.50;;;;;;;4.76;100.00;98735.97;5014439;28;20025;-76
2023/01/10 02:34:38;;;;;;;1.25;0.40;;;;;;;4.76;100.00;98740.50;4922114;28;20059;-76
2023/01/10 02:37:25;;;;;;;0.47;0.40;;;;;;;4.65;100.00;98738.97;5004410;28;20042;-76
2023/01/10 02:40:06;;;;;;;0.82;0.60;;;;;;;4.64;100.00;98748.03;4988949;28;20037;-76
2023/01/10 02:42:42;;;;;;;0.70;0.43;;;;;;;4.73;100.00;98759.59;4991702;28;20112;-74
2023/01/10 02:45:16;;;;;;;1.65;0.60;;;;;;;4.65;100.00;98751.56;5007275;28;20030;-75
2023/01/10 02:47:41;;;;;;;3.42;0.40;;;;;;;4.65;100.00;98754.22;5006717;28;20028;-75
2023/01/10 02:50:25;;;;;;;1.08;0.50;;;;;;;4.71;100.00;98756.22;5007429;28;20025;-74
2023/01/10 02:52:51;;;;;;;1.83;0.40;;;;;;;4.66;100.00;98751.38;4995082;28;20036;-75
2023/01/10 02:55:16;;;;;;;1.45;0.50;;;;;;;4.73;100.00;98770.31;4986073;28;20391;-75
2023/01/10 02:58:10;;;;;;;1.30;0.50;;;;;;;4.71;100.00;98770.47;5009397;28;20030;-75
2023/01/10 03:00:48;;;;;;;1.08;0.40;;;;;;;4.74;100.00;98780.00;5002678;28;20029;-75
2023/01/10 03:03:19;;;;;;;1.10;0.40;;;;;;;4.69;100.00;98782.34;4995287;28;20037;-75
2023/01/10 03:06:00;;;;;;;1.40;0.20;;;;;;;4.61;100.00;98778.69;4998329;28;20026;-75
2023/01/10 03:08:25;;;;;;;1.75;0.50;;;;;;;4.65;100.00;98795.25;5014356;28;20560;-75
2023/01/10 03:11:00;;;;;;;4.38;0.70;;;;;;;4.65;100.00;98792.56;5014429;28;20045;-76
2023/01/10 03:13:33;;;;;;;0.60;0.60;;;;;;;4.57;100.00;98784.53;4993389;28;20030;-75
2023/01/10 03:16:01;;;;;;;2.08;0.63;;;;;;;4.72;100.00;98808.84;5017906;28;20093;-75
2023/01/10 03:18:34;;;;;;;2.83;0.60;;;;;;;4.64;100.00;98806.13;4997999;28;20029;-74
2023/01/10 03:21:03;;;;;;;0.77;0.50;;;;;;;4.53;100.00;98807.28;5016052;28;20026;-75
2023/01/10 03:23:32;;;;;;;3.38;0.70;;;;;;;4.42;100.00;98780.81;4989562;28;20034;-75
2023/01/10 03:25:58;;;;;;;1.42;0.70;;;;;;;4.68;100.00;98831.59;4998472;28;20029;-75
2023/01/10 03:28:36;;;;;;;1.95;0.57;;;;;;;4.56;100.00;98826.56;5017325;28;20040;-75
2023/01/10 03:31:10;;;;;;;1.30;0.50;;;;;;;4.65;100.00;98845.34;5103854;22;20038;-67
2023/01/10 03:33:36;;;;;;;2.33;0.45;;;;;;;4.65;100.00;98848.84;5004793;28;20040;-68
2023/01/10 03:36:19;;;;;;;3.75;0.68;;;;;;;4.63;100.00;98856.22;4970959;28;20041;-67
2023/01/10 03:38:55;;;;;;;6.28;0.82;;;;;;;4.67;100.00;98862.09;4988599;28;20521;-67
2023/01/10 03:41:39;;;;;;;0.77;0.47;;;;;;;4.66;100.00;98868.44;4994208;28;20984;-67
2023/01/10 03:47:12;;;;;;;4.15;0.70;;;;;;;4.60;100.00;98880.66;4995970;28;20085;-67
2023/01/10 03:49:44;;;;;;;6.28;0.82;;;;;;;4.57;100.00;98878.31;4966187;28;20474;-68
2023/01/10 03:52:14;;;;;;;3.67;0.65;;;;;;;4.52;100.00;98883.31;4972261;28;20034;-68
2023/01/10 03:54:42;;;;;;;1.33;0.60;;;;;;;4.49;100.00;98894.38;4986240;28;20034;-68
2023/01/10 03:57:15;;;;;;;1.17;0.60;;;;;;;4.46;100.00;98892.84;4971711;28;20023;-68
2023/01/10 03:59:40;;;;;;;1.85;0.70;;;;;;;4.45;100.00;98893.81;4978430;28;20185;-68
2023/01/10 04:02:06;;;;;;;5.07;0.80;;;;;;;4.37;100.00;98897.31;4969380;28;20041;-68
2023/01/10 04:04:31;;;;;;;3.00;0.68;;;;;;;4.41;100.00;98897.03;4983454;28;20109;-69
2023/01/10 04:06:56;;;;;;;2.70;0.80;;;;;;;4.42;100.00;98914.75;4970824;28;20402;-68
2023/01/10 04:09:22;;;;;;;3.08;0.60;;;;;;;4.39;100.00;98911.38;5000322;28;20084;-68
2023/01/10 04:11:47;;;;;;;1.95;0.60;;;;;;;4.42;100.00;98914.75;4985016;28;20373;-68
2023/01/10 04:14:12;;;;;;;5.07;0.82;;;;;;;4.36;100.00;98911.72;4973066;28;20045;-69
2023/01/10 04:16:38;;;;;;;3.78;0.98;;;;;;;4.34;100.00;98907.53;4975297;28;20041;-68
2023/01/10 04:19:03;;;;;;;1.95;0.77;;;;;;;4.35;100.00;98920.78;4972404;28;20022;-68
2023/01/10 04:21:29;;;;;;;2.08;0.85;;;;;;;4.18;100.00;98925.19;4977787;28;20015;-68
2023/01/10 04:23:54;;;;;;;3.67;0.70;;;;;;;4.16;100.00;98935.22;4976871;28;20057;-68
2023/01/10 04:26:19;;;;;;;8.48;1.25;;;;;;;3.95;100.00;98942.78;4974249;28;20474;-68
2023/01/10 04:28:45;;;;;;;3.55;0.90;;;;;;;3.83;100.00;98962.81;4978748;28;20022;-68
2023/01/10 04:31:10;;;;;;;3.60;1.35;;;;;;;3.77;100.00;98974.09;4978589;28;20048;-68
2023/01/10 04:33:37;;;;;;;6.20;1.30;;;;;;;3.74;100.00;98976.09;4991042;28;20054;-68
2023/01/10 04:36:03;;;;;;;5.85;1.48;;;;;;;3.68;100.00;98976.72;4963385;28;20033;-68
2023/01/10 04:38:28;;;;;;;3.45;1.55;;;;;;;3.66;100.00;98985.91;4973564;28;20030;-68
2023/01/10 04:40:55;;;;;;;5.18;1.52;;;;;;;3.65;100.00;98989.59;4994300;28;20026;-68
2023/01/10 04:43:22;;;;;;;3.70;1.45;;;;;;;3.61;100.00;99005.09;4979832;28;20038;-68
2023/01/10 04:45:47;;;;;;;3.22;1.20;;;;;;;3.61;100.00;98999.72;4975606;28;20185;-68
2023/01/10 04:48:13;;;;;;;2.80;1.50;;;;;;;3.57;100.00;99016.28;4982096;28;20521;-68
2023/01/10 04:50:38;;;;;;;4.82;1.10;;;;;;;3.56;100.00;99026.09;4974083;28;20113;-68
2023/01/10 04:53:04;;;;;;;4.55;1.38;;;;;;;3.62;100.00;99038.88;4979972;28;20049;-68
2023/01/10 04:55:31;;;;;;;6.97;1.45;;;;;;;3.69;100.00;99031.06;4973143;28;20053;-68
2023/01/10 04:57:57;;;;;;;5.07;1.30;;;;;;;3.80;100.00;99032.66;4989744;28;20476;-69
2023/01/10 05:00:22;;;;;;;3.03;1.20;;;;;;;3.89;100.00;99037.09;4984940;28;20029;-67
2023/01/10 05:02:48;;;;;;;3.25;1.40;;;;;;;3.92;100.00;99039.47;5002810;28;20017;-67
2023/01/10 05:05:14;;;;;;;2.95;1.02;;;;;;;3.92;100.00;99050.19;4967653;28;20034;-67
2023/01/10 05:07:40;;;;;;;6.32;1.45;;;;;;;3.93;100.00;99042.00;4972101;28;20470;-66
2023/01/10 05:10:07;;;;;;;2.83;0.95;;;;;;;3.84;100.00;99042.09;4977298;28;20113;-67
2023/01/10 05:12:33;;;;;;;5.10;1.38;;;;;;;3.99;100.00;99061.94;4976225;28;20478;-67
2023/01/10 05:14:59;;;;;;;7.03;1.92;;;;;;;3.99;100.00;99069.97;4984216;28;20888;-67
2023/01/10 05:17:25;;;;;;;4.60;1.50;;;;;;;3.95;100.00;99057.88;4990331;28;20030;-67
2023/01/10 05:19:51;;;;;;;5.55;1.73;;;;;;;3.98;100.00;99064.78;4974586;28;20104;-67
2023/01/10 05:22:16;;;;;;;10.35;1.58;;;;;;;3.99;100.00;99069.16;4974464;28;20485;-67
2023/01/10 05:24:41;;;;;;;2.30;1.30;;;;;;;3.97;100.00;99061.25;4984532;28;20053;-67
2023/01/10 05:27:07;;;;;;;5.53;1.35;;;;;;;4.03;100.00;99060.63;4983400;28;20022;-67
2023/01/10 05:29:33;;;;;;;5.95;1.42;;;;;;;4.04;100.00;99074.88;4973749;28;20122;-66
2023/01/10 05:31:59;;;;;;;4.85;1.67;;;;;;;3.99;100.00;99083.38;4971598;28;20023;-66
2023/01/10 05:34:26;;;;;;;6.63;1.45;;;;;;;4.06;100.00;99088.94;4974500;28;20112;-66
2023/01/10 05:36:51;;;;;;;7.45;1.60;;;;;;;4.11;100.00;99094.66;4975997;28;20041;-66
2023/01/10 05:39:17;;;;;;;7.00;1.50;;;;;;;4.12;100.00;99085.66;4986150;28;20030;-66
2023/01/10 05:41:42;;;;;;;6.10;1.65;;;;;;;4.14;100.00;99094.38;4990155;28;20120;-66
2023/01/10 05:44:08;;;;;;;7.78;1.55;;;;;;;4.11;100.00;99100.88;4981435;28;20041;-66
2023/01/10 05:46:33;;;;;;;8.70;1.60;;;;;;;4.15;100.00;99102.25;4982914;28;20119;-66
2023/01/10 05:48:59;;;;;;;10.57;2.58;;;;;;;4.12;100.00;99099.88;4977980;28;20109;-66
2023/01/10 05:51:25;;;;;;;4.47;1.55;;;;;;;4.14;100.00;99111.28;4994237;28;20173;-66
2023/01/10 05:53:50;;;;;;;7.35;1.80;;;;;;;4.16;100.00;99119.13;4971394;28;20031;-67
2023/01/10 05:56:16;;;;;;;5.18;1.55;;;;;;;4.12;100.00;99132.00;4975645;28;20081;-67
2023/01/10 05:58:43;;;;;;;7.80;1.83;;;;;;;4.14;100.00;99131.88;4998375;28;20030;-66
2023/01/10 06:01:08;;;;;;;10.95;2.40;;;;;;;4.12;100.00;99123.13;4977486;28;20026;-67
2023/01/10 06:03:41;;;;;;;11.48;2.10;;;;;;;4.07;100.00;99120.91;4994003;28;20037;-67
2023/01/10 06:06:07;;;;;;;8.05;1.70;;;;;;;4.15;100.00;99129.03;4979868;28;20049;-67
2023/01/10 06:08:32;;;;;;;14.93;2.60;;;;;;;4.10;100.00;99135.84;4993105;28;20483;-67
2023/01/10 06:10:58;;;;;;;16.65;2.00;;;;;;;4.06;100.00;99132.63;4973201;28;20389;-67
2023/01/10 06:13:23;;;;;;;15.63;2.05;;;;;;;4.11;100.00;99130.34;4976756;28;20030;-67
2023/01/10 06:15:49;;;;;;;10.88;1.80;;;;;;;4.13;100.00;99131.00;4974823;28;20041;-67
2023/01/10 06:18:15;;;;;;;14.20;2.58;;;;;;;4.15;100.00;99138.91;4973640;28;20065;-67
2023/01/10 06:20:42;;;;;;;14.75;2.47;;;;;;;4.08;100.00;99137.81;4981970;28;20613;-67
2023/01/10 06:23:07;;;;;;;13.25;2.47;;;;;;;4.10;100.00;99135.84;4990407;28;20520;-67
2023/01/10 06:25:35;;;;;;;11.20;2.03;;;;;;;4.07;100.00;99134.31;4974769;28;20026;-67
2023/01/10 06:28:01;;;;;;;9.25;1.30;;;;;;;4.04;100.00;99139.97;4989480;28;20034;-67
2023/01/10 06:30:27;;;;;;;15.25;1.80;;;;;;;4.06;100.00;99151.38;4983767;28;20029;-67
2023/01/10 06:32:52;;;;;;;13.98;1.90;;;;;;;4.06;100.00;99142.47;4978899;28;20030;-67
2023/01/10 06:35:18;;;;;;;8.88;1.52;;;;;;;4.05;100.00;99149.66;4976611;28;20045;-67
2023/01/10 06:37:44;;;;;;;8.57;1.27;;;;;;;4.06;100.00;99161.22;4971684;28;20042;-66
2023/01/10 06:40:10;;;;;;;10.52;2.13;;;;;;;4.02;100.00;99170.56;4973287;28;20414;-66
2023/01/10 06:42:35;;;;;;;15.20;1.65;;;;;;;4.02;100.00;99182.13;4990742;28;20041;-67
2023/01/10 06:45:02;;;;;;;6.45;1.80;;;;;;;4.01;100.00;99185.78;4996887;28;20057;-67
2023/01/10 06:47:28;;;;;;;8.85;1.60;;;;;;;4.02;100.00;99192.81;4986576;28;20430;-66
2023/01/10 06:49:54;;;;;;;10.45;1.90;;;;;;;4.00;100.00;99192.13;4982326;28;20141;-67
2023/01/10 06:52:19;;;;;;;19.33;2.67;;;;;;;3.98;100.00;99193.28;4979023;28;20494;-67
2023/01/10 06:54:44;;;;;;;13.48;1.67;;;;;;;3.98;100.00;99191.44;4976851;28;20061;-67
2023/01/10 06:57:10;;;;;;;14.05;1.90;;;;;;;3.97;100.00;99195.09;4975474;28;20034;-67
2023/01/10 06:59:35;;;;;;;7.63;1.95;;;;;;;3.89;100.00;99198.53;4973230;28;20026;-67
2023/01/10 07:02:00;;;;;;;9.30;1.73;;;;;;;3.88;100.00;99196.88;4975874;28;20022;-66
2023/01/10 07:04:26;;;;;;;13.70;2.22;;;;;;;3.86;100.00;99198.84;4972178;28;20373;-67
2023/01/10 07:06:52;;;;;;;10.23;1.58;;;;;;;3.80;100.00;99209.28;4977720;28;20084;-67
2023/01/10 07:09:17;;;;;;;6.82;1.65;;;;;;;3.73;100.00;99207.22;4974731;28;20041;-66
2023/01/10 07:11:43;;;;;;;11.18;1.95;;;;;;;3.68;100.00;99190.78;4977722;28;20026;-67
2023/01/10 07:14:09;;;;;;;8.13;1.60;;;;;;;3.62;100.00;99199.41;4977488;28;20129;-67
2023/01/10 07:16:34;;;;;;;15.48;1.77;;;;;;;3.62;100.00;99220.81;4982948;28;20026;-67
2023/01/10 07:18:59;;;;;;;10.73;1.60;;;;;;;3.67;100.00;99223.06;4975467;28;20030;-66
2023/01/10 07:21:25;;;;;;;9.85;1.58;;;;;;;3.79;100.00;99221.00;4983859;28;20072;-67
2023/01/10 07:23:51;;;;;;;20.05;2.58;;;;;;;3.88;100.00;99238.84;4974776;28;20034;-67
2023/01/10 07:26:18;;;;;;;13.90;1.60;;;;;;;3.98;100.00;99250.31;4979232;28;20121;-64
2023/01/10 07:28:52;;;;;;;10.00;1.85;;;;;;;4.04;100.00;99244.38;4983547;28;20029;-67
2023/01/10 07:31:21;;;;;;;10.85;2.10;;;;;;;4.06;100.00;99247.75;5008690;28;20030;-66
2023/01/10 07:33:46;;;;;;;8.98;2.42;;;;;;;4.10;100.00;99246.44;4992186;28;20065;-66
2023/01/10 07:36:12;;;;;;;14.23;2.20;;;;;;;4.16;100.00;99247.69;4977811;28;20060;-67
2023/01/10 07:38:37;;;;;;;10.50;2.28;;;;;;;4.21;100.00;99250.75;4989740;28;20034;-67
2023/01/10 07:41:04;;;;;;;8.07;1.73;;;;;;;4.26;100.00;99258.34;4974267;28;20026;-67
2023/01/10 07:43:30;;;;;;;10.98;2.05;;;;;;;4.26;100.00;99240.41;4982659;28;20030;-67
2023/01/10 07:46:08;;;;;;;8.77;2.38;;;;;;;4.28;100.00;99249.16;4975667;28;20018;-67
2023/01/10 07:48:33;;;;;;;18.10;2.20;;;;;;;4.37;100.00;99263.47;4981046;28;20026;-67
2023/01/10 07:51:00;;;;;;;9.20;1.90;;;;;;;4.43;100.00;99281.63;4990516;28;20022;-67
2023/01/10 07:53:27;;;;;;;8.68;1.80;;;;;;;4.43;100.00;99295.00;4975793;28;20033;-67
2023/01/10 07:55:57;;;;;;;12.45;3.58;;;;;;;4.37;100.00;99303.63;4971617;28;20050;-67
2023/01/10 07:58:22;;;;;;;8.82;1.85;;;;;;;4.41;100.00;99309.56;4975873;28;20019;-66
2023/01/10 08:00:49;;;;;;;13.68;1.40;;;;;;;4.44;100.00;99312.75;4986693;28;20032;-67
2023/01/10 08:03:15;;;;;;;12.13;2.20;;;;;;;4.42;100.00;99314.75;4985959;28;20117;-67
2023/01/10 08:05:41;;;;;;;13.80;2.28;;;;;;;4.49;100.00;99331.91;4975583;28;20030;-66
2023/01/10 08:08:09;;;;;;;16.85;1.85;;;;;;;4.46;100.00;99339.41;4976599;28;20030;-66
2023/01/10 08:10:35;;;;;;;10.15;1.88;;;;;;;4.52;100.00;99338.81;4977707;28;20115;-66
2023/01/10 08:13:01;;;;;;;9.18;1.65;;;;;;;4.59;100.00;99347.94;4968666;28;20027;-66
2023/01/10 08:15:26;;;;;;;10.35;1.58;;;;;;;4.56;100.00;99337.50;4972779;28;20049;-66
2023/01/10 08:17:52;;;;;;;17.17;2.35;;;;;;;4.53;100.00;99338.66;4974740;28;20172;-66
2023/01/10 08:20:17;;;;;;;11.93;2.22;;;;;;;4.63;100.00;99335.06;4974546;28;20386;-66
2023/01/10 08:22:43;;;;;;;10.70;1.90;;;;;;;4.52;100.00;99320.88;4977122;28;20026;-66
2023/01/10 08:25:09;;;;;;;11.60;1.90;;;;;;;4.60;100.00;99337.03;4977450;28;20108;-65
2023/01/10 08:27:36;;;;;;;10.02;1.83;;;;;;;4.65;100.00;99343.78;4975120;28;20104;-65
2023/01/10 08:30:01;;;;;;;13.55;2.05;;;;;;;4.64;100.00;99347.44;4964978;28;20026;-65
2023/01/10 08:32:27;;;;;;;8.25;2.00;;;;;;;4.64;100.00;99342.09;4966940;28;20030;-65
2023/01/10 08:34:52;;;;;;;10.50;2.45;;;;;;;4.66;100.00;99340.94;4981603;28;20122;-65
2023/01/10 08:37:18;;;;;;;11.60;2.65;;;;;;;4.82;100.00;99353.66;4972735;28;20083;-65
2023/01/10 08:39:43;;;;;;;10.88;2.13;;;;;;;4.82;100.00;99350.97;4962894;28;20052;-65
2023/01/10 08:42:09;;;;;;;15.18;2.35;;;;;;;4.85;100.00;99369.47;4965887;28;20459;-65
2023/01/10 08:44:35;;;;;;;10.52;2.30;;;;;;;4.82;100.00;99353.66;4968817;28;20451;-65
2023/01/10 08:47:00;;;;;;;11.52;2.08;;;;;;;4.82;100.00;99353.66;4971862;28;20034;-65
2023/01/10 08:49:26;;;;;;;10.38;1.73;;;;;;;4.89;100.00;99352.06;4977566;28;20035;-65
2023/01/10 08:51:51;;;;;;;13.15;2.40;;;;;;;4.92;100.00;99351.75;4965104;28;20032;-65
2023/01/10 08:54:17;;;;;;;12.02;2.35;;;;;;;5.12;100.00;99356.97;4970849;28;20030;-65
2023/01/10 08:56:45;;;;;;;12.57;2.10;;;;;;;5.12;100.00;99355.13;4965641;28;20034;-66
2023/01/10 08:59:11;;;;;;;7.70;1.90;;;;;;;5.18;100.00;99365.22;4982683;28;20121;-67
2023/01/10 09:01:36;;;;;;;10.10;1.60;;;;;;;5.12;100.00;99365.00;4969496;28;20108;-66
2023/01/10 09:04:02;;;;;;;13.82;1.48;;;;;;;5.25;100.00;99373.50;4980059;28;20117;-67
2023/01/10 09:06:27;;;;;;;7.63;1.88;;;;;;;5.34;100.00;99375.22;4978840;28;20041;-66
2023/01/10 09:08:53;;;;;;;13.38;2.30;;;;;;;5.25;100.00;99385.06;4982438;28;20129;-66
2023/01/10 09:11:18;;;;;;;12.23;2.28;;;;;;;5.10;100.00;99385.78;4970206;28;20490;-65
2023/01/10 09:13:48;;;;;;;14.20;2.85;;;;;;;5.23;100.00;99386.22;4981530;28;20310;-64
2023/01/10 09:16:13;;;;;;;9.48;2.40;;;;;;;5.23;100.00;99380.84;4967377;28;20110;-66
2023/01/10 09:18:39;;;;;;;10.27;2.63;;;;;;;5.23;100.00;99389.75;4981310;28;20081;-65
2023/01/10 09:21:04;;;;;;;15.02;2.05;;;;;;;5.30;100.00;99397.19;4965270;28;20030;-66
2023/01/10 09:23:30;;;;;;;5.60;1.83;;;;;;;5.23;100.00;99397.78;4979489;28;20030;-66
2023/01/10 09:25:56;;;;;;;10.18;2.13;;;;;;;5.31;100.00;99399.69;4964680;28;20019;-65
2023/01/10 09:28:23;;;;;;;9.80;1.52;;;;;;;5.36;100.00;99401.94;4975937;28;20049;-65
2023/01/10 09:30:49;;;;;;;9.40;1.42;;;;;;;5.51;100.00;99410.28;4962824;28;20031;-66
2023/01/10 09:33:15;;;;;;;13.80;2.45;;;;;;;5.68;100.00;99412.06;4966803;28;20056;-66
2023/01/10 09:35:42;;;;;;;7.07;1.60;;;;;;;5.47;100.00;99399.81;4972496;28;20092;-65
2023/01/10 09:38:13;;;;;;;3.65;1.30;;;;;;;5.45;100.00;99411.75;4969595;28;20049;-65
2023/01/10 09:40:44;;;;;;;17.60;2.40;;;;;;;5.53;100.00;99418.97;4990562;28;20026;-65
2023/01/10 09:43:14;;;;;;;10.40;2.15;;;;;;;5.52;100.00;99425.34;4987331;28;20116;-65
2023/01/10 09:45:59;;;;;;;;;;;;;;;5.63;100.00;99431.34;4972309;28;20030;-65
2023/01/10 09:48:59;;;;;;;11.60;1.38;;;;;;;5.68;100.00;99433.53;4929779;28;20247;-66
2023/01/10 09:51:24;;;;;;;14.43;1.95;;;;;;;5.57;100.00;99441.84;4982669;28;20540;-65
2023/01/10 09:53:54;;;;;;;10.13;1.83;;;;;;;5.52;100.00;99449.53;4976003;28;20062;-65
2023/01/10 09:56:19;;;;;;;7.32;1.60;;;;;;;5.40;100.00;99436.34;4992993;23;20117;-73
2023/01/10 09:58:46;;;;;;;16.88;1.83;;;;;;;5.50;100.00;99463.06;4993447;28;20390;-74
2023/01/10 10:01:17;;;;;;;11.30;1.83;;;;;;;5.43;100.00;99454.81;5009658;28;20052;-78
2023/01/10 10:04:02;;;;;;;13.98;1.65;;;;;;;5.57;100.00;99452.56;5017418;28;20475;-78
2023/01/10 10:06:28;;;;;;;14.02;2.33;;;;;;;5.54;100.00;99452.91;4988321;28;20117;-76
2023/01/10 10:08:53;;;;;;;9.57;1.50;;;;;;;5.39;100.00;99426.59;4975020;28;20061;-76
2023/01/10 10:11:57;;;;;;;14.73;2.17;;;;;;;5.46;100.00;99446.44;4994763;28;20034;-84
2023/01/10 10:14:37;;;;;;;5.70;1.50;;;;;;;5.49;100.00;99451.50;5001235;28;20031;-72
2023/01/10 10:17:22;;;;;;;19.75;4.60;;;;;;;5.61;100.00;99432.50;4993216;28;20077;-72
2023/01/10 10:20:09;;;;;;;17.15;4.57;;;;;;;5.71;100.00;99446.63;4983596;28;20517;-76
2023/01/10 10:23:10;;;;;;;13.95;3.10;;;;;;;5.88;100.00;99440.41;4984112;28;20027;-74
2023/01/10 10:26:22;;;;;;;7.90;2.58;;;;;;;6.03;100.00;99439.88;4975195;28;20049;-74
2023/01/10 10:28:54;;;;;;;12.40;3.40;;;;;;;6.29;100.00;99438.00;4995235;28;20026;-75
2023/01/10 10:31:50;;;;;;;11.63;2.80;;;;;;;6.42;100.00;99447.44;4984590;28;20023;-74
2023/01/10 10:34:35;;;;;;;10.23;2.63;;;;;;;6.40;100.00;99434.19;4991340;28;20038;-75
2023/01/10 10:37:14;;;;;;;21.58;4.20;;;;;;;6.27;100.00;99433.78;4989726;28;20022;-75
2023/01/10 10:40:22;;;;;;;15.65;4.00;;;;;;;6.32;100.00;99437.66;4969474;28;20030;-76
2023/01/10 10:42:50;;;;;;;15.82;4.00;;;;;;;6.03;100.00;99421.91;4988795;28;20090;-81
2023/01/10 10:45:22;;;;;;;17.15;4.30;;;;;;;6.03;100.00;99431.81;4976626;28;20030;-76
2023/01/10 10:47:59;;;;;;;10.73;3.85;;;;;;;6.27;100.00;99423.88;4997133;28;20471;-77
2023/01/10 10:50:34;;;;;;;17.77;5.93;;;;;;;6.40;100.00;99433.34;4979435;28;20037;-81
2023/01/10 10:53:01;;;;;;;18.58;6.60;;;;;;;6.29;100.00;99421.88;5005336;28;20542;-79
2023/01/10 10:55:31;;;;;;;9.25;2.50;;;;;;;6.39;100.00;99416.34;5006667;28;20037;-83
2023/01/10 10:57:56;;;;;;;10.98;2.65;;;;;;;6.49;100.00;99403.63;5003984;28;20048;-84
2023/01/10 11:00:23;;;;;;;11.75;3.13;;;;;;;6.59;100.00;99384.69;4999653;28;20026;-82
2023/01/10 11:03:15;;;;;;;11.55;2.95;;;;;;;6.78;100.00;99418.50;4994601;28;20049;-76
2023/01/10 11:05:44;;;;;;;10.85;2.10;;;;;;;6.78;100.00;99407.75;4948012;28;20038;-74
2023/01/10 11:08:12;;;;;;;8.95;1.65;;;;;;;6.80;100.00;99416.50;4995016;28;20026;-77
2023/01/10 11:10:39;;;;;;;9.38;2.17;;;;;;;6.79;100.00;99415.66;4994402;28;20494;-76
2023/01/10 11:13:32;;;;;;;6.30;1.52;;;;;;;6.61;100.00;99419.47;4976249;28;20030;-77
2023/01/10 11:16:04;;;;;;;13.88;2.25;;;;;;;6.51;100.00;99424.97;4994574;28;20042;-80
2023/01/10 11:18:30;;;;;;;12.10;2.65;;;;;;;6.67;100.00;99432.25;5001862;28;20050;-81
2023/01/10 11:21:00;;;;;;;7.15;1.75;;;;;;;6.74;100.00;99419.84;4982200;28;20117;-76
2023/01/10 11:23:31;;;;;;;11.05;2.08;;;;;;;6.97;100.00;99428.16;4981617;28;20037;-76
2023/01/10 11:25:57;;;;;;;10.98;1.45;;;;;;;6.91;100.00;99431.50;4997847;28;20034;-76
2023/01/10 11:28:28;;;;;;;7.32;1.63;;;;;;;6.87;100.00;99430.97;4966186;28;20057;-76
2023/01/10 11:30:54;;;;;;;8.60;1.90;;;;;;;6.82;100.00;99421.72;4994808;28;20037;-75
2023/01/10 11:33:24;;;;;;;10.45;1.98;;;;;;;6.86;100.00;99423.06;4979014;28;20026;-75
2023/01/10 11:36:02;;;;;;;10.50;1.30;;;;;;;6.70;100.00;99413.94;4997255;28;20048;-76
2023/01/10 11:38:29;;;;;;;7.22;1.27;;;;;;;6.69;100.00;99411.44;4987156;28;20034;-76
2023/01/10 11:40:57;;;;;;;8.38;1.73;;;;;;;6.59;100.00;99420.47;4973181;28;20033;-76
2023/01/10 11:43:30;;;;;;;5.45;1.25;;;;;;;6.18;100.00;99414.06;4992254;28;20019;-76
2023/01/10 11:46:01;;;;;;;9.95;2.22;;;;;;;6.16;100.00;99437.59;4987997;28;20614;-76
2023/01/10 11:48:42;;;;;;;12.55;2.47;;;;;;;5.92;100.00;99447.16;4974245;28;20026;-76
2023/01/10 11:51:17;;;;;;;9.45;1.60;;;;;;;5.43;100.00;99443.25;4998578;28;20029;-75